createdAt,value
2018-04-26T00:00:45.112Z,9.76
2018-04-26T00:01:45.088Z,9.61
2018-04-26T00:02:45.032Z,9.57
2018-04-26T00:03:44.982Z,9.58
2018-04-26T00:04:44.931Z,9.56
2018-04-26T00:05:44.868Z,9.58
2018-04-26T00:06:45.013Z,9.58
2018-04-26T00:07:44.809Z,9.65
2018-04-26T00:08:44.737Z,9.60
2018-04-26T00:09:44.705Z,9.65
2018-04-26T00:10:44.663Z,9.57
2018-04-26T00:11:44.643Z,9.50
2018-04-26T00:12:44.609Z,9.53
2018-04-26T00:13:44.565Z,9.53
2018-04-26T00:14:44.518Z,9.48
2018-04-26T00:15:44.467Z,9.53
2018-04-26T00:16:44.430Z,9.50
2018-04-26T00:17:44.408Z,9.47
2018-04-26T00:18:44.579Z,9.47
2018-04-26T00:19:44.320Z,9.39
2018-04-26T00:20:44.550Z,9.42
2018-04-26T00:21:44.255Z,9.56
2018-04-26T00:22:44.215Z,9.61
2018-04-26T00:23:44.324Z,9.58
2018-04-26T00:24:44.092Z,9.61
2018-04-26T00:25:44.041Z,9.58
2018-04-26T00:26:44.045Z,9.60
2018-04-26T00:27:44.007Z,9.60
2018-04-26T00:28:43.954Z,9.61
2018-04-26T00:29:44.163Z,9.64
2018-04-26T00:30:43.833Z,9.64
2018-04-26T00:31:43.824Z,9.65
2018-04-26T00:32:43.852Z,9.66
2018-04-26T00:33:43.759Z,9.68
2018-04-26T00:34:43.683Z,9.57
2018-04-26T00:35:43.668Z,9.65
2018-04-26T00:36:43.606Z,9.74
2018-04-26T00:37:43.639Z,9.74
2018-04-26T00:38:43.539Z,9.78
2018-04-26T00:39:43.461Z,9.71
2018-04-26T00:40:43.432Z,9.72
2018-04-26T00:41:43.541Z,9.76
2018-04-26T00:42:43.397Z,9.74
2018-04-26T00:43:43.310Z,9.76
2018-04-26T00:44:43.277Z,9.79
2018-04-26T00:45:43.227Z,9.75
2018-04-26T00:46:43.168Z,9.72
2018-04-26T00:47:43.156Z,9.71
2018-04-26T00:48:43.095Z,9.78
2018-04-26T00:49:43.063Z,9.78
2018-04-26T00:50:43.023Z,9.86
2018-04-26T00:51:42.981Z,9.94
2018-04-26T00:52:42.996Z,9.83
2018-04-26T00:53:42.900Z,9.91
2018-04-26T00:54:42.846Z,9.86
2018-04-26T00:55:43.741Z,9.87
2018-04-26T00:56:42.772Z,9.97
2018-04-26T00:57:42.830Z,9.86
2018-04-26T00:58:42.717Z,9.94
2018-04-26T00:59:42.736Z,9.91
2018-04-26T01:00:42.601Z,9.97
2018-04-26T01:01:42.632Z,9.96
2018-04-26T01:02:42.542Z,9.99
2018-04-26T01:03:42.510Z,9.87
2018-04-26T01:04:42.462Z,9.90
2018-04-26T01:05:42.406Z,9.90
2018-04-26T01:06:42.356Z,9.91
2018-04-26T01:07:42.342Z,9.91
2018-04-26T01:08:42.314Z,9.89
2018-04-26T01:09:42.300Z,9.97
2018-04-26T01:10:42.196Z,10.01
2018-04-26T01:11:42.162Z,10.01
2018-04-26T01:12:42.131Z,10.02
2018-04-26T01:13:42.112Z,9.97
2018-04-26T01:14:42.044Z,9.99
2018-04-26T01:15:42.016Z,10.02
2018-04-26T01:16:41.953Z,9.99
2018-04-26T01:17:41.905Z,9.97
2018-04-26T01:18:41.880Z,9.97
2018-04-26T01:19:41.923Z,10.07
2018-04-26T01:20:41.791Z,10.01
2018-04-26T01:21:41.754Z,9.96
2018-04-26T01:22:41.738Z,10.01
2018-04-26T01:23:41.813Z,10.05
2018-04-26T01:24:41.660Z,10.08
2018-04-26T01:25:41.613Z,10.05
2018-04-26T01:26:41.609Z,9.99
2018-04-26T01:27:41.584Z,10.01
2018-04-26T01:28:41.463Z,9.99
2018-04-26T01:29:41.478Z,9.97
2018-04-26T01:30:41.384Z,10.05
2018-04-26T01:31:41.340Z,10.04
2018-04-26T01:32:41.293Z,9.96
2018-04-26T01:33:41.269Z,10.01
2018-04-26T01:34:41.253Z,10.04
2018-04-26T01:35:41.265Z,10.08
2018-04-26T01:36:41.146Z,10.04
2018-04-26T01:37:41.178Z,10.02
2018-04-26T01:38:41.069Z,10.09
2018-04-26T01:39:41.115Z,10.09
2018-04-26T01:40:41.010Z,10.07
2018-04-26T01:41:40.944Z,10.15
2018-04-26T01:42:40.926Z,10.15
2018-04-26T01:43:41.004Z,10.15
2018-04-26T01:44:40.855Z,10.20
2018-04-26T01:45:40.818Z,10.14
2018-04-26T01:46:40.843Z,10.11
2018-04-26T01:47:40.707Z,10.18
2018-04-26T01:48:40.675Z,10.18
2018-04-26T01:49:40.701Z,10.26
2018-04-26T01:50:40.597Z,10.23
2018-04-26T01:51:40.537Z,10.23
2018-04-26T01:52:40.492Z,10.20
2018-04-26T01:53:40.460Z,10.17
2018-04-26T01:54:40.412Z,10.14
2018-04-26T01:55:40.422Z,10.22
2018-04-26T01:56:40.353Z,10.25
2018-04-26T01:57:40.286Z,10.23
2018-04-26T01:58:40.269Z,10.25
2018-04-26T01:59:40.204Z,10.20
2018-04-26T02:00:40.156Z,10.22
2018-04-26T02:01:40.161Z,10.20
2018-04-26T02:02:40.073Z,10.27
2018-04-26T02:03:40.056Z,10.18
2018-04-26T02:04:39.994Z,10.22
2018-04-26T02:05:39.978Z,10.23
2018-04-26T02:06:39.934Z,10.27
2018-04-26T02:07:39.884Z,10.29
2018-04-26T02:08:39.829Z,10.15
2018-04-26T02:09:39.813Z,10.26
2018-04-26T02:10:39.765Z,10.14
2018-04-26T02:11:39.776Z,10.22
2018-04-26T02:12:39.878Z,10.23
2018-04-26T02:13:39.668Z,10.22
2018-04-26T02:14:39.619Z,10.29
2018-04-26T02:15:39.578Z,10.20
2018-04-26T02:16:39.727Z,10.18
2018-04-26T02:17:39.472Z,10.25
2018-04-26T02:18:39.424Z,10.22
2018-04-26T02:19:39.480Z,10.18
2018-04-26T02:20:39.733Z,10.27
2018-04-26T02:21:39.486Z,10.20
2018-04-26T02:22:39.291Z,10.25
2018-04-26T02:23:39.237Z,10.20
2018-04-26T02:24:39.199Z,10.32
2018-04-26T02:25:39.150Z,10.22
2018-04-26T02:26:39.142Z,10.27
2018-04-26T02:27:39.193Z,10.15
2018-04-26T02:28:39.058Z,10.25
2018-04-26T02:29:38.990Z,10.26
2018-04-26T02:30:38.964Z,10.25
2018-04-26T02:31:38.907Z,10.14
2018-04-26T02:32:38.915Z,10.25
2018-04-26T02:33:38.836Z,10.17
2018-04-26T02:34:38.778Z,10.22
2018-04-26T02:35:38.767Z,10.22
2018-04-26T02:36:38.683Z,10.29
2018-04-26T02:37:38.693Z,10.29
2018-04-26T02:38:38.616Z,10.23
2018-04-26T02:39:38.579Z,10.26
2018-04-26T02:40:38.536Z,10.25
2018-04-26T02:41:38.507Z,10.23
2018-04-26T02:42:38.639Z,10.25
2018-04-26T02:43:38.427Z,10.17
2018-04-26T02:44:38.385Z,10.17
2018-04-26T02:45:38.337Z,10.17
2018-04-26T02:46:38.327Z,10.11
2018-04-26T02:47:38.279Z,10.22
2018-04-26T02:48:38.426Z,10.25
2018-04-26T02:49:38.168Z,10.22
2018-04-26T02:50:38.175Z,10.25
2018-04-26T02:51:38.087Z,10.14
2018-04-26T02:52:38.059Z,10.17
2018-04-26T02:53:38.089Z,10.22
2018-04-26T02:54:37.979Z,10.25
2018-04-26T02:55:38.134Z,10.22
2018-04-26T02:56:37.895Z,10.25
2018-04-26T02:57:37.852Z,10.20
2018-04-26T02:58:37.837Z,10.22
2018-04-26T02:59:37.780Z,10.22
2018-04-26T03:00:37.756Z,10.23
2018-04-26T03:01:37.703Z,10.25
2018-04-26T03:02:37.685Z,10.14
2018-04-26T03:03:37.632Z,10.23
2018-04-26T03:04:37.573Z,10.22
2018-04-26T03:05:37.557Z,10.15
2018-04-26T03:06:37.508Z,10.23
2018-04-26T03:07:37.445Z,10.25
2018-04-26T03:08:37.497Z,10.25
2018-04-26T03:09:37.372Z,10.22
2018-04-26T03:10:37.305Z,10.26
2018-04-26T03:11:37.292Z,10.29
2018-04-26T03:12:37.229Z,10.18
2018-04-26T03:13:37.214Z,10.22
2018-04-26T03:14:37.334Z,10.22
2018-04-26T03:15:37.137Z,10.27
2018-04-26T03:16:37.092Z,10.23
2018-04-26T03:17:37.049Z,10.27
2018-04-26T03:18:37.179Z,10.27
2018-04-26T03:19:36.955Z,10.25
2018-04-26T03:20:36.911Z,10.22
2018-04-26T03:21:36.903Z,10.25
2018-04-26T03:22:36.843Z,10.29
2018-04-26T03:23:36.775Z,10.23
2018-04-26T03:24:36.740Z,10.23
2018-04-26T03:25:36.697Z,10.23
2018-04-26T03:26:36.670Z,10.17
2018-04-26T03:27:36.660Z,10.26
2018-04-26T03:28:36.582Z,10.20
2018-04-26T03:29:36.552Z,10.27
2018-04-26T03:30:36.503Z,10.17
2018-04-26T03:31:36.478Z,10.23
2018-04-26T03:32:36.419Z,10.17
2018-04-26T03:33:36.412Z,10.30
2018-04-26T03:34:36.347Z,10.23
2018-04-26T03:35:36.289Z,10.20
2018-04-26T03:36:36.250Z,10.18
2018-04-26T03:37:36.244Z,10.14
2018-04-26T03:38:36.177Z,10.14
2018-04-26T03:39:36.174Z,10.22
2018-04-26T03:40:36.100Z,10.18
2018-04-26T03:41:36.074Z,10.12
2018-04-26T03:42:36.121Z,10.25
2018-04-26T03:43:35.990Z,10.25
2018-04-26T03:44:35.942Z,10.25
2018-04-26T03:45:35.895Z,10.15
2018-04-26T03:46:35.854Z,10.22
2018-04-26T03:47:35.862Z,10.22
2018-04-26T03:48:35.772Z,10.26
2018-04-26T03:49:35.716Z,10.22
2018-04-26T03:50:35.682Z,10.17
2018-04-26T03:51:35.648Z,10.18
2018-04-26T03:52:35.652Z,10.20
2018-04-26T03:53:35.591Z,10.20
2018-04-26T03:54:35.529Z,10.17
2018-04-26T03:55:35.571Z,10.23
2018-04-26T03:56:35.452Z,10.18
2018-04-26T03:57:35.422Z,10.18
2018-04-26T03:58:35.515Z,10.18
2018-04-26T03:59:35.339Z,10.22
2018-04-26T04:00:35.295Z,10.23
2018-04-26T04:01:35.308Z,10.20
2018-04-26T04:02:35.249Z,10.23
2018-04-26T04:03:35.179Z,10.22
2018-04-26T04:04:35.111Z,10.23
2018-04-26T04:05:35.291Z,10.23
2018-04-26T04:06:35.062Z,10.23
2018-04-26T04:07:35.029Z,10.14
2018-04-26T04:08:35.031Z,10.22
2018-04-26T04:09:34.928Z,10.20
2018-04-26T04:10:35.120Z,10.26
2018-04-26T04:11:35.285Z,10.18
2018-04-26T04:12:34.830Z,10.20
2018-04-26T04:13:34.771Z,10.23
2018-04-26T04:14:34.732Z,10.20
2018-04-26T04:15:34.680Z,10.17
2018-04-26T04:16:34.656Z,10.14
2018-04-26T04:17:34.619Z,10.18
2018-04-26T04:18:34.590Z,10.17
2018-04-26T04:19:34.609Z,10.23
2018-04-26T04:20:34.483Z,10.26
2018-04-26T04:21:34.417Z,10.22
2018-04-26T04:22:34.391Z,10.14
2018-04-26T04:23:34.367Z,10.22
2018-04-26T04:24:34.376Z,10.14
2018-04-26T04:25:34.279Z,10.15
2018-04-26T04:26:34.240Z,10.15
2018-04-26T04:27:34.192Z,10.12
2018-04-26T04:28:34.180Z,10.09
2018-04-26T04:29:34.106Z,10.14
2018-04-26T04:30:34.058Z,10.15
2018-04-26T04:31:34.086Z,10.20
2018-04-26T04:32:33.985Z,10.26
2018-04-26T04:33:33.965Z,10.14
2018-04-26T04:34:33.908Z,10.18
2018-04-26T04:35:33.850Z,10.12
2018-04-26T04:36:33.802Z,10.17
2018-04-26T04:37:33.811Z,10.25
2018-04-26T04:38:33.795Z,10.20
2018-04-26T04:39:33.743Z,10.22
2018-04-26T04:40:33.652Z,10.20
2018-04-26T04:41:33.632Z,10.20
2018-04-26T04:42:33.606Z,10.17
2018-04-26T04:43:33.535Z,10.14
2018-04-26T04:44:33.547Z,10.18
2018-04-26T04:45:33.527Z,10.12
2018-04-26T04:46:33.421Z,10.09
2018-04-26T04:47:33.370Z,10.12
2018-04-26T04:48:33.332Z,10.17
2018-04-26T04:49:33.334Z,10.12
2018-04-26T04:50:33.257Z,10.12
2018-04-26T04:51:33.241Z,10.11
2018-04-26T04:52:33.179Z,10.12
2018-04-26T04:53:33.169Z,10.12
2018-04-26T04:54:33.110Z,10.14
2018-04-26T04:55:33.035Z,10.18
2018-04-26T04:56:33.027Z,10.25
2018-04-26T04:57:32.968Z,10.15
2018-04-26T04:58:32.999Z,10.23
2018-04-26T04:59:32.919Z,10.22
2018-04-26T05:00:32.855Z,10.22
2018-04-26T05:01:32.855Z,10.25
2018-04-26T05:02:32.768Z,10.25
2018-04-26T05:03:32.715Z,10.18
2018-04-26T05:04:32.684Z,10.26
2018-04-26T05:05:32.874Z,10.18
2018-04-26T05:06:32.706Z,10.22
2018-04-26T05:07:32.579Z,10.22
2018-04-26T05:08:32.514Z,10.26
2018-04-26T05:09:32.497Z,10.20
2018-04-26T05:10:32.483Z,10.23
2018-04-26T05:11:32.392Z,10.20
2018-04-26T05:12:32.367Z,10.25
2018-04-26T05:13:32.308Z,10.23
2018-04-26T05:14:32.282Z,10.29
2018-04-26T05:15:32.247Z,10.25
2018-04-26T05:16:32.214Z,10.26
2018-04-26T05:17:32.156Z,10.23
2018-04-26T05:18:32.142Z,10.20
2018-04-26T05:19:32.092Z,10.23
2018-04-26T05:20:32.350Z,10.26
2018-04-26T05:21:32.018Z,10.20
2018-04-26T05:22:31.958Z,10.14
2018-04-26T05:23:31.927Z,10.09
2018-04-26T05:24:31.857Z,10.15
2018-04-26T05:25:31.864Z,10.02
2018-04-26T05:26:31.775Z,10.01
2018-04-26T05:27:32.290Z,10.01
2018-04-26T05:28:31.868Z,9.99
2018-04-26T05:29:31.673Z,10.01
2018-04-26T05:30:31.743Z,9.93
2018-04-26T05:31:31.567Z,9.97
2018-04-26T05:32:31.538Z,9.97
2018-04-26T05:33:31.579Z,9.93
2018-04-26T05:34:31.524Z,10.01
2018-04-26T05:35:31.447Z,10.04
2018-04-26T05:36:31.452Z,9.97
2018-04-26T05:37:31.334Z,10.02
2018-04-26T05:38:31.314Z,9.94
2018-04-26T05:39:31.259Z,10.01
2018-04-26T05:40:31.283Z,10.14
2018-04-26T05:41:31.211Z,10.15
2018-04-26T05:42:31.175Z,10.14
2018-04-26T05:43:31.090Z,10.23
2018-04-26T05:44:31.115Z,10.12
2018-04-26T05:45:31.016Z,9.99
2018-04-26T05:46:30.980Z,9.93
2018-04-26T05:47:30.962Z,9.89
2018-04-26T05:48:30.893Z,9.84
2018-04-26T05:49:30.843Z,9.99
2018-04-26T05:50:30.855Z,9.93
2018-04-26T05:51:30.794Z,10.01
2018-04-26T05:52:30.766Z,10.04
2018-04-26T05:53:30.692Z,10.04
2018-04-26T05:54:30.690Z,9.99
2018-04-26T05:55:30.602Z,9.93
2018-04-26T05:56:30.585Z,9.93
2018-04-26T05:57:30.571Z,9.94
2018-04-26T05:58:30.483Z,9.87
2018-04-26T05:59:30.452Z,9.86
2018-04-26T06:00:30.445Z,9.90
2018-04-26T06:01:30.361Z,9.96
2018-04-26T06:02:30.367Z,9.94
2018-04-26T06:03:30.271Z,10.05
2018-04-26T06:04:30.226Z,9.99
2018-04-26T06:05:30.206Z,10.08
2018-04-26T06:06:30.204Z,10.11
2018-04-26T06:07:30.142Z,10.23
2018-04-26T06:08:30.067Z,10.30
2018-04-26T06:09:30.042Z,10.22
2018-04-26T06:10:29.994Z,10.22
2018-04-26T06:11:30.044Z,10.30
2018-04-26T06:12:29.955Z,10.26
2018-04-26T06:13:29.903Z,10.22
2018-04-26T06:14:29.857Z,10.29
2018-04-26T06:15:29.832Z,10.36
2018-04-26T06:16:29.745Z,10.33
2018-04-26T06:17:29.751Z,10.32
2018-04-26T06:18:29.692Z,10.27
2018-04-26T06:19:29.662Z,10.29
2018-04-26T06:20:29.607Z,10.38
2018-04-26T06:21:29.538Z,10.32
2018-04-26T06:22:29.549Z,10.25
2018-04-26T06:23:29.532Z,10.18
2018-04-26T06:24:29.457Z,10.25
2018-04-26T06:25:29.380Z,10.22
2018-04-26T06:26:29.360Z,10.02
2018-04-26T06:27:29.303Z,9.86
2018-04-26T06:28:29.386Z,9.74
2018-04-26T06:29:29.208Z,9.74
2018-04-26T06:30:29.240Z,9.76
2018-04-26T06:31:29.145Z,9.65
2018-04-26T06:32:29.105Z,9.71
2018-04-26T06:33:29.153Z,9.60
2018-04-26T06:34:29.024Z,9.50
2018-04-26T06:35:28.978Z,9.47
2018-04-26T06:36:29.090Z,9.35
2018-04-26T06:37:29.857Z,9.39
2018-04-26T06:38:28.870Z,9.40
2018-04-26T06:39:28.809Z,9.35
2018-04-26T06:40:28.773Z,9.35
2018-04-26T06:41:28.730Z,9.32
2018-04-26T06:42:28.688Z,9.35
2018-04-26T06:43:28.680Z,9.36
2018-04-26T06:44:36.181Z,9.35
2018-04-26T06:45:38.958Z,9.36
2018-04-26T06:46:28.528Z,9.36
2018-04-26T06:47:28.475Z,9.36
2018-04-26T06:48:28.443Z,9.50
2018-04-26T06:49:28.451Z,9.47
2018-04-26T06:50:28.341Z,9.51
2018-04-26T06:51:28.331Z,9.61
2018-04-26T06:52:28.277Z,9.60
2018-04-26T06:53:28.244Z,9.64
2018-04-26T06:54:28.255Z,9.66
2018-04-26T06:55:28.163Z,9.56
2018-04-26T06:56:28.100Z,9.56
2018-04-26T06:57:28.073Z,9.50
2018-04-26T06:58:28.034Z,9.47
2018-04-26T06:59:27.997Z,9.48
2018-04-26T07:00:28.007Z,9.46
2018-04-26T07:01:27.906Z,9.32
2018-04-26T07:02:27.854Z,9.38
2018-04-26T07:03:27.826Z,9.35
2018-04-26T07:04:27.798Z,9.53
2018-04-26T07:05:27.743Z,9.43
2018-04-26T07:06:27.691Z,9.51
2018-04-26T07:07:27.654Z,9.69
2018-04-26T07:08:27.612Z,9.72
2018-04-26T07:09:27.572Z,9.79
2018-04-26T07:10:27.559Z,9.83
2018-04-26T07:11:27.496Z,9.81
2018-04-26T07:12:27.495Z,9.87
2018-04-26T07:13:27.403Z,9.96
2018-04-26T07:14:27.397Z,9.83
2018-04-26T07:15:27.355Z,10.01
2018-04-26T07:16:27.297Z,10.02
2018-04-26T07:17:27.259Z,10.08
2018-04-26T07:18:27.204Z,10.22
2018-04-26T07:19:27.186Z,10.18
2018-04-26T07:20:27.163Z,10.17
2018-04-26T07:21:27.079Z,10.30
2018-04-26T07:22:27.059Z,10.23
2018-04-26T07:23:27.104Z,10.30
2018-04-26T07:24:26.980Z,10.40
2018-04-26T07:25:26.967Z,10.48
2018-04-26T07:26:26.896Z,10.55
2018-04-26T07:27:26.854Z,10.60
2018-04-26T07:28:26.798Z,10.66
2018-04-26T07:29:26.759Z,10.59
2018-04-26T07:30:26.752Z,10.79
2018-04-26T07:31:26.684Z,10.89
2018-04-26T07:32:26.650Z,10.97
2018-04-26T07:33:26.605Z,11.10
2018-04-26T07:34:26.565Z,11.18
2018-04-26T07:35:26.520Z,11.43
2018-04-26T07:36:26.503Z,11.65
2018-04-26T07:37:26.449Z,11.76
2018-04-26T07:38:26.423Z,11.67
2018-04-26T07:39:26.423Z,11.76
2018-04-26T07:40:26.375Z,11.80
2018-04-26T07:41:26.312Z,11.73
2018-04-26T07:42:26.297Z,11.78
2018-04-26T07:43:26.215Z,12.01
2018-04-26T07:44:26.228Z,13.54
2018-04-26T07:45:26.152Z,13.82
2018-04-26T07:46:26.121Z,14.06
2018-04-26T07:47:26.044Z,14.02
2018-04-26T07:48:26.007Z,13.95
2018-04-26T07:49:25.973Z,14.24
2018-04-26T07:50:25.933Z,14.09
2018-04-26T07:51:25.922Z,13.99
2018-04-26T07:52:25.871Z,13.70
2018-04-26T07:53:25.817Z,13.55
2018-04-26T07:54:25.768Z,13.30
2018-04-26T07:55:25.796Z,13.07
2018-04-26T07:56:25.729Z,12.70
2018-04-26T07:57:25.746Z,12.71
2018-04-26T07:58:25.621Z,12.41
2018-04-26T07:59:25.631Z,13.26
2018-04-26T08:00:25.588Z,13.11
2018-04-26T08:01:25.587Z,13.67
2018-04-26T08:02:25.528Z,14.40
2018-04-26T08:03:25.533Z,15.20
2018-04-26T08:04:25.402Z,14.98
2018-04-26T08:05:25.369Z,14.96
2018-04-26T08:06:25.378Z,15.14
2018-04-26T08:07:25.330Z,15.19
2018-04-26T08:08:25.236Z,14.89
2018-04-26T08:09:25.251Z,14.04
2018-04-26T08:10:25.189Z,13.54
2018-04-26T08:11:25.132Z,13.15
2018-04-26T08:12:25.167Z,13.00
2018-04-26T08:13:25.072Z,12.85
2018-04-26T08:14:25.037Z,12.67
2018-04-26T08:15:25.061Z,13.51
2018-04-26T08:16:24.969Z,14.00
2018-04-26T08:17:24.940Z,14.83
2018-04-26T08:18:24.885Z,14.64
2018-04-26T08:19:24.845Z,15.09
2018-04-26T08:20:24.810Z,15.32
2018-04-26T08:21:24.766Z,15.97
2018-04-26T08:22:24.812Z,16.43
2018-04-26T08:23:24.709Z,16.79
2018-04-26T08:24:24.674Z,16.39
2018-04-26T08:25:24.670Z,15.47
2018-04-26T08:26:24.584Z,15.29
2018-04-26T08:27:24.604Z,14.80
2018-04-26T08:28:24.600Z,14.94
2018-04-26T08:29:24.490Z,14.35
2018-04-26T08:30:24.520Z,14.65
2018-04-26T08:31:24.477Z,14.02
2018-04-26T08:32:24.362Z,13.89
2018-04-26T08:33:24.367Z,14.17
2018-04-26T08:34:24.296Z,13.92
2018-04-26T08:35:24.321Z,13.54
2018-04-26T08:36:24.221Z,13.49
2018-04-26T08:37:24.187Z,13.15
2018-04-26T08:38:24.194Z,12.90
2018-04-26T08:39:24.119Z,12.70
2018-04-26T08:40:24.099Z,12.67
2018-04-26T08:41:24.057Z,12.56
2018-04-26T08:42:23.998Z,12.42
2018-04-26T08:43:23.987Z,12.53
2018-04-26T08:44:23.923Z,12.41
2018-04-26T08:45:23.885Z,12.38
2018-04-26T08:46:23.861Z,12.56
2018-04-26T08:47:23.826Z,12.52
2018-04-26T08:48:23.790Z,12.38
2018-04-26T08:49:23.761Z,12.56
2018-04-26T08:50:23.699Z,12.42
2018-04-26T08:51:23.717Z,12.42
2018-04-26T08:52:23.659Z,12.41
2018-04-26T08:53:23.628Z,12.31
2018-04-26T08:54:23.617Z,12.32
2018-04-26T08:55:23.532Z,12.89
2018-04-26T08:56:23.483Z,13.48
2018-04-26T08:57:23.498Z,13.19
2018-04-26T08:58:23.498Z,13.57
2018-04-26T08:59:23.439Z,14.15
2018-04-26T09:00:23.325Z,14.39
2018-04-26T09:01:23.292Z,15.11
2018-04-26T09:02:23.257Z,15.64
2018-04-26T09:03:23.347Z,15.89
2018-04-26T09:04:23.216Z,16.14
2018-04-26T09:05:23.144Z,16.45
2018-04-26T09:06:23.129Z,16.56
2018-04-26T09:07:23.055Z,16.96
2018-04-26T09:08:23.024Z,16.97
2018-04-26T09:09:22.981Z,16.97
2018-04-26T09:10:22.978Z,17.18
2018-04-26T09:11:22.920Z,17.89
2018-04-26T09:12:22.882Z,17.89
2018-04-26T09:13:22.856Z,17.63
2018-04-26T09:14:22.853Z,17.44
2018-04-26T09:15:22.817Z,17.89
2018-04-26T09:16:22.768Z,17.96
2018-04-26T09:17:22.721Z,17.82
2018-04-26T09:18:22.744Z,17.77
2018-04-26T09:19:22.686Z,17.99
2018-04-26T09:20:22.668Z,18.12
2018-04-26T09:21:22.597Z,18.54
2018-04-26T09:22:22.557Z,18.75
2018-04-26T09:23:22.524Z,18.90
2018-04-26T09:24:22.505Z,18.98
2018-04-26T09:25:22.548Z,17.81
2018-04-26T09:26:22.455Z,17.48
2018-04-26T09:27:22.384Z,16.61
2018-04-26T09:28:22.367Z,16.21
2018-04-26T09:29:22.341Z,15.80
2018-04-26T09:30:22.347Z,15.67
2018-04-26T09:31:22.277Z,15.38
2018-04-26T09:32:22.241Z,15.06
2018-04-26T09:33:22.229Z,14.94
2018-04-26T09:34:22.192Z,14.72
2018-04-26T09:35:22.135Z,14.52
2018-04-26T09:36:22.143Z,14.18
2018-04-26T09:37:22.093Z,14.09
2018-04-26T09:38:22.052Z,14.00
2018-04-26T09:39:22.059Z,14.96
2018-04-26T09:40:21.982Z,15.76
2018-04-26T09:41:22.069Z,16.48
2018-04-26T09:42:21.948Z,17.00
2018-04-26T09:43:21.871Z,17.33
2018-04-26T09:44:21.821Z,17.66
2018-04-26T09:45:21.845Z,17.00
2018-04-26T09:46:22.519Z,17.03
2018-04-26T09:47:21.751Z,17.40
2018-04-26T09:48:21.726Z,17.72
2018-04-26T09:49:21.681Z,17.11
2018-04-26T09:50:21.638Z,17.59
2018-04-26T09:51:21.622Z,18.25
2018-04-26T09:52:21.571Z,18.78
2018-04-26T09:53:21.611Z,18.67
2018-04-26T09:54:21.498Z,18.92
2018-04-26T09:55:21.501Z,19.91
2018-04-26T09:56:21.426Z,19.25
2018-04-26T09:57:21.442Z,18.05
2018-04-26T09:58:21.367Z,18.08
2018-04-26T09:59:21.344Z,18.23
2018-04-26T10:00:21.312Z,17.96
2018-04-26T10:01:21.270Z,18.44
2018-04-26T10:02:21.266Z,18.05
2018-04-26T10:03:21.315Z,17.71
2018-04-26T10:04:21.169Z,17.49
2018-04-26T10:05:21.169Z,16.53
2018-04-26T10:06:21.107Z,16.20
2018-04-26T10:07:21.131Z,15.65
2018-04-26T10:08:21.053Z,15.07
2018-04-26T10:09:21.011Z,14.92
2018-04-26T10:10:20.986Z,15.06
2018-04-26T10:11:20.952Z,14.95
2018-04-26T10:12:20.950Z,15.23
2018-04-26T10:13:20.896Z,15.62
2018-04-26T10:14:20.865Z,16.24
2018-04-26T10:15:20.820Z,17.06
2018-04-26T10:16:20.789Z,16.93
2018-04-26T10:17:20.760Z,16.81
2018-04-26T10:18:20.751Z,16.33
2018-04-26T10:19:20.694Z,16.02
2018-04-26T10:20:20.655Z,16.02
2018-04-26T10:21:20.637Z,16.05
2018-04-26T10:22:20.608Z,16.33
2018-04-26T10:23:21.210Z,17.06
2018-04-26T10:24:20.818Z,17.14
2018-04-26T10:25:20.494Z,17.71
2018-04-26T10:26:21.108Z,17.18
2018-04-26T10:27:20.960Z,17.06
2018-04-26T10:28:20.678Z,16.70
2018-04-26T10:29:20.381Z,16.25
2018-04-26T10:30:20.337Z,15.72
2018-04-26T10:31:20.289Z,15.11
2018-04-26T10:32:20.308Z,14.80
2018-04-26T10:33:20.223Z,14.43
2018-04-26T10:34:20.225Z,14.62
2018-04-26T10:35:20.207Z,14.75
2018-04-26T10:36:20.110Z,15.50
2018-04-26T10:37:20.095Z,16.43
2018-04-26T10:38:20.075Z,16.48
2018-04-26T10:39:20.081Z,16.01
2018-04-26T10:40:20.001Z,16.02
2018-04-26T10:41:20.083Z,15.71
2018-04-26T10:42:19.914Z,15.64
2018-04-26T10:43:19.871Z,15.60
2018-04-26T10:44:19.947Z,15.49
2018-04-26T10:45:19.820Z,15.14
2018-04-26T10:46:19.783Z,15.01
2018-04-26T10:47:19.763Z,14.91
2018-04-26T10:48:19.703Z,14.98
2018-04-26T10:49:19.715Z,14.92
2018-04-26T10:50:19.653Z,15.29
2018-04-26T10:51:19.597Z,15.20
2018-04-26T10:52:19.578Z,15.31
2018-04-26T10:53:19.548Z,15.06
2018-04-26T10:54:19.533Z,14.72
2018-04-26T10:55:19.479Z,14.55
2018-04-26T10:56:19.433Z,14.42
2018-04-26T10:57:19.386Z,14.37
2018-04-26T10:58:19.343Z,14.36
2018-04-26T10:59:19.357Z,14.42
2018-04-26T11:00:19.315Z,14.65
2018-04-26T11:01:19.232Z,14.24
2018-04-26T11:02:19.225Z,14.25
2018-04-26T11:03:19.255Z,14.18
2018-04-26T11:04:19.143Z,14.15
2018-04-26T11:05:19.468Z,14.20
2018-04-26T11:06:19.110Z,14.15
2018-04-26T11:07:19.054Z,13.97
2018-04-26T11:08:19.029Z,14.21
2018-04-26T11:09:19.002Z,14.35
2018-04-26T11:10:19.097Z,14.73
2018-04-26T11:11:18.926Z,15.43
2018-04-26T11:12:18.877Z,15.82
2018-04-26T11:13:19.116Z,16.41
2018-04-26T11:14:18.803Z,16.85
2018-04-26T11:15:18.838Z,17.14
2018-04-26T11:16:18.730Z,17.44
2018-04-26T11:17:18.755Z,17.89
2018-04-26T11:18:19.450Z,17.92
2018-04-26T11:19:18.596Z,17.56
2018-04-26T11:20:18.597Z,17.89
2018-04-26T11:21:18.575Z,17.49
2018-04-26T11:22:18.505Z,17.74
2018-04-26T11:23:18.485Z,17.54
2018-04-26T11:24:18.440Z,17.15
2018-04-26T11:25:18.406Z,16.85
2018-04-26T11:26:18.406Z,16.70
2018-04-26T11:27:18.352Z,16.50
2018-04-26T11:28:18.339Z,16.00
2018-04-26T11:29:18.354Z,15.92
2018-04-26T11:30:18.463Z,15.75
2018-04-26T11:31:18.475Z,15.60
2018-04-26T11:32:18.207Z,15.41
2018-04-26T11:33:18.151Z,15.25
2018-04-26T11:34:18.109Z,15.20
2018-04-26T11:35:18.069Z,15.11
2018-04-26T11:36:18.068Z,15.49
2018-04-26T11:37:18.005Z,16.17
2018-04-26T11:38:17.974Z,16.43
2018-04-26T11:39:17.937Z,16.66
2018-04-26T11:40:18.013Z,16.91
2018-04-26T11:41:17.910Z,16.83
2018-04-26T11:42:17.888Z,16.83
2018-04-26T11:43:17.813Z,16.82
2018-04-26T11:44:17.771Z,17.21
2018-04-26T11:45:17.746Z,17.04
2018-04-26T11:46:17.719Z,17.30
2018-04-26T11:47:17.674Z,17.68
2018-04-26T11:48:17.636Z,17.26
2018-04-26T11:49:17.606Z,17.00
2018-04-26T11:50:17.571Z,16.76
2018-04-26T11:51:17.562Z,16.56
2018-04-26T11:52:17.508Z,16.34
2018-04-26T11:53:17.477Z,16.38
2018-04-26T11:54:17.448Z,16.58
2018-04-26T11:55:17.407Z,17.14
2018-04-26T11:56:17.456Z,17.52
2018-04-26T11:57:17.341Z,17.68
2018-04-26T11:58:17.301Z,17.59
2018-04-26T11:59:17.277Z,17.70
2018-04-26T12:00:17.237Z,17.31
2018-04-26T12:01:17.238Z,17.36
2018-04-26T12:02:17.299Z,17.59
2018-04-26T12:03:17.162Z,17.81
2018-04-26T12:04:17.145Z,17.74
2018-04-26T12:05:17.094Z,17.66
2018-04-26T12:06:17.098Z,17.77
2018-04-26T12:07:17.045Z,17.79
2018-04-26T12:08:17.009Z,17.55
2018-04-26T12:09:16.986Z,17.16
2018-04-26T12:10:16.982Z,16.76
2018-04-26T12:11:16.905Z,16.67
2018-04-26T12:12:16.916Z,16.78
2018-04-26T12:13:16.847Z,16.67
2018-04-26T12:14:16.832Z,16.53
2018-04-26T12:15:16.792Z,16.52
2018-04-26T12:16:16.775Z,16.35
2018-04-26T12:17:16.741Z,16.30
2018-04-26T12:18:16.667Z,16.66
2018-04-26T12:19:16.638Z,17.11
2018-04-26T12:20:16.612Z,17.43
2018-04-26T12:21:16.585Z,17.48
2018-04-26T12:22:16.569Z,17.68
2018-04-26T12:23:16.521Z,17.82
2018-04-26T12:24:16.478Z,17.96
2018-04-26T12:25:16.448Z,18.02
2018-04-26T12:26:16.408Z,18.02
2018-04-26T12:27:16.414Z,18.17
2018-04-26T12:28:16.347Z,18.00
2018-04-26T12:29:16.338Z,17.79
2018-04-26T12:30:16.288Z,17.78
2018-04-26T12:31:16.265Z,17.48
2018-04-26T12:32:16.256Z,17.46
2018-04-26T12:33:16.199Z,17.48
2018-04-26T12:34:16.161Z,17.26
2018-04-26T12:35:16.149Z,17.04
2018-04-26T12:36:16.103Z,16.82
2018-04-26T12:37:16.083Z,16.57
2018-04-26T12:38:16.069Z,16.41
2018-04-26T12:39:16.007Z,16.45
2018-04-26T12:40:15.975Z,16.56
2018-04-26T12:41:15.951Z,16.73
2018-04-26T12:42:15.943Z,16.86
2018-04-26T12:43:15.935Z,17.14
2018-04-26T12:44:15.852Z,17.30
2018-04-26T12:45:15.824Z,17.30
2018-04-26T12:46:15.792Z,17.21
2018-04-26T12:47:15.754Z,17.25
2018-04-26T12:48:15.748Z,17.41
2018-04-26T12:49:15.682Z,17.46
2018-04-26T12:50:15.713Z,17.18
2018-04-26T12:51:15.638Z,17.07
2018-04-26T12:52:15.615Z,17.08
2018-04-26T12:53:15.609Z,17.16
2018-04-26T12:54:15.536Z,17.12
2018-04-26T12:55:15.495Z,17.30
2018-04-26T12:56:15.480Z,17.52
2018-04-26T12:57:15.432Z,17.72